SHT7U EGPF-EGLL
Flight info
| Callsign | SHT7U |
|---|---|
| Flight time | N/A |
| Altitude | 33000 |
| Route | NORBO T256 DCS N57 POL P18 LISTO L612 HON |
| Aircraft | A320/M-SDE3FGHIRWY/LB1 |
Departure
| Time | N/A |
|---|---|
| Airport | Glasgow Airport (EGPF) |
Arrival
| Time | 2026-05-04 08:40 |
|---|---|
| Airport | London Heathrow Airport (EGLL) |
| Time | Latitude | Longitude | Altitude | Speed | Heading |
|---|---|---|---|---|---|
| 2026-05-04 08:24 | 52.00969 | -1.26648 | 18113 ft | 355 kts | 150° |
| 2026-05-04 08:24 | 52.00283 | -1.25975 | 17804 ft | 353 kts | 150° |
| 2026-05-04 08:24 | 51.98745 | -1.24474 | 17144 ft | 350 kts | 150° |
| 2026-05-04 08:24 | 51.96670 | -1.22452 | 16267 ft | 346 kts | 150° |
| 2026-05-04 08:25 | 51.94613 | -1.20469 | 15422 ft | 342 kts | 151° |
| 2026-05-04 08:25 | 51.92577 | -1.18523 | 14605 ft | 338 kts | 151° |
| 2026-05-04 08:25 | 51.90565 | -1.16606 | 13807 ft | 334 kts | 151° |
| 2026-05-04 08:25 | 51.88576 | -1.14701 | 12924 ft | 330 kts | 148° |
| 2026-05-04 08:26 | 51.86907 | -1.12209 | 12130 ft | 327 kts | 126° |
| 2026-05-04 08:27 | 51.80914 | -0.88593 | 10052 ft | 319 kts | 113° |
| 2026-05-04 08:28 | 51.80106 | -0.85310 | 9879 ft | 309 kts | 113° |
| 2026-05-04 08:28 | 51.79328 | -0.82138 | 9741 ft | 298 kts | 113° |
| 2026-05-04 08:28 | 51.78575 | -0.79076 | 9612 ft | 289 kts | 113° |
| 2026-05-04 08:28 | 51.77838 | -0.76073 | 9473 ft | 286 kts | 113° |
| 2026-05-04 08:29 | 51.77100 | -0.73073 | 9071 ft | 290 kts | 113° |
| 2026-05-04 08:29 | 51.76358 | -0.70060 | 8775 ft | 287 kts | 113° |
| 2026-05-04 08:29 | 51.75620 | -0.67074 | 8427 ft | 286 kts | 113° |
| 2026-05-04 08:31 | 51.69133 | -0.49567 | 6427 ft | 243 kts | 136° |
| 2026-05-04 08:33 | 51.60793 | -0.36651 | 4736 ft | 235 kts | 136° |
| 2026-05-04 08:33 | 51.59616 | -0.34836 | 4508 ft | 234 kts | 136° |
| 2026-05-04 08:35 | 51.51741 | -0.22712 | 3224 ft | 209 kts | 135° |
| 2026-05-04 08:35 | 51.50571 | -0.21460 | 3132 ft | 199 kts | 164° |
| 2026-05-04 08:35 | 51.49233 | -0.21506 | 3052 ft | 193 kts | 200° |
| 2026-05-04 08:35 | 51.48484 | -0.22237 | 3023 ft | 191 kts | 224° |
| 2026-05-04 08:37 | 51.47788 | -0.33531 | 1350 ft | 145 kts | 271° |
| 2026-05-04 08:37 | 51.47785 | -0.35139 | 1156 ft | 143 kts | 271° |
| 2026-05-04 08:37 | 51.47781 | -0.36729 | 954 ft | 142 kts | 271° |
| 2026-05-04 08:38 | 51.47782 | -0.38313 | 748 ft | 142 kts | 272° |
| 2026-05-04 08:38 | 51.47784 | -0.39891 | 563 ft | 141 kts | 271° |
| 2026-05-04 08:38 | 51.47777 | -0.41452 | 372 ft | 139 kts | 272° |
| 2026-05-04 08:40 | 51.47643 | -0.46867 | 89 ft | 9 kts | 215° |
| 2026-05-04 08:40 | 51.47586 | -0.46939 | 90 ft | 12 kts | 249° |
| 2026-05-04 08:40 | 51.47583 | -0.47090 | 90 ft | 15 kts | 270° |
| 2026-05-04 08:41 | 51.47581 | -0.47273 | 91 ft | 18 kts | 269° |
| 2026-05-04 08:41 | 51.47580 | -0.47492 | 90 ft | 21 kts | 270° |
| 2026-05-04 08:41 | 51.47580 | -0.47745 | 90 ft | 24 kts | 270° |
| 2026-05-04 08:41 | 51.47579 | -0.47985 | 88 ft | 19 kts | 270° |
| 2026-05-04 08:42 | 51.47578 | -0.48217 | 88 ft | 20 kts | 270° |
| 2026-05-04 08:42 | 51.47578 | -0.48395 | 89 ft | 12 kts | 270° |
| 2026-05-04 08:42 | 51.47526 | -0.48479 | 88 ft | 11 kts | 187° |
| 2026-05-04 08:42 | 51.47486 | -0.48582 | 88 ft | 13 kts | 269° |
| 2026-05-04 08:43 | 51.47486 | -0.48747 | 89 ft | 16 kts | 269° |
| 2026-05-04 08:43 | 51.47486 | -0.48846 | 88 ft | 3 kts | 272° |
| 2026-05-04 08:43 | 51.47486 | -0.48853 | 88 ft | 2 kts | 272° |
| 2026-05-04 08:43 | 51.47486 | -0.48880 | 90 ft | 3 kts | 260° |
| 2026-05-04 08:44 | 51.47461 | -0.48894 | 88 ft | 6 kts | 174° |
| 2026-05-04 08:44 | 51.47417 | -0.48894 | 87 ft | 5 kts | 180° |
| 2026-05-04 08:46 | 51.47401 | -0.48894 | 87 ft | 0 kts | 179° |